createdAt,value
2018-03-23T00:02:10.808Z,29.30
2018-03-23T00:04:46.580Z,28.43
2018-03-23T00:07:21.839Z,28.70
2018-03-23T00:09:56.848Z,27.60
2018-03-23T00:12:33.012Z,27.73
2018-03-23T00:15:08.084Z,28.80
2018-03-23T00:17:44.108Z,29.83
2018-03-23T00:20:18.980Z,29.90
2018-03-23T00:22:54.331Z,30.90
2018-03-23T00:25:29.693Z,30.73
2018-03-23T00:28:05.206Z,29.60
2018-03-23T00:30:36.973Z,30.43
2018-03-23T00:33:12.705Z,29.90
2018-03-23T00:35:48.343Z,31.07
2018-03-23T00:38:23.349Z,31.47
2018-03-23T00:40:58.387Z,31.50
2018-03-23T00:43:33.786Z,31.57
2018-03-23T00:46:04.681Z,31.47
2018-03-23T00:48:40.317Z,31.40
2018-03-23T00:51:15.309Z,31.57
2018-03-23T00:53:50.403Z,31.10
2018-03-23T00:56:25.417Z,30.87
2018-03-23T00:59:00.638Z,31.03
2018-03-23T01:01:35.522Z,30.87
2018-03-23T01:04:12.477Z,30.93
2018-03-23T01:06:47.445Z,31.33
2018-03-23T01:09:23.225Z,31.43
2018-03-23T01:11:58.057Z,30.57
2018-03-23T01:14:33.288Z,31.90
2018-03-23T01:17:09.500Z,30.93
2018-03-23T01:19:44.544Z,31.43
2018-03-23T01:22:19.801Z,31.07
2018-03-23T01:24:55.927Z,30.57
2018-03-23T01:27:32.283Z,29.97
2018-03-23T01:30:09.067Z,31.77
2018-03-23T01:32:44.162Z,32.67
2018-03-23T01:35:20.501Z,30.87
2018-03-23T01:37:56.278Z,31.63
2018-03-23T01:40:31.729Z,30.63
2018-03-23T01:43:06.715Z,30.87
2018-03-23T01:45:38.375Z,32.20
2018-03-23T01:48:14.052Z,31.60
2018-03-23T01:50:49.653Z,30.33
2018-03-23T01:53:33.658Z,32.33
2018-03-23T01:56:08.506Z,34.03
2018-03-23T01:58:43.330Z,33.93
2018-03-23T02:01:14.475Z,32.27
2018-03-23T02:03:49.619Z,31.83
2018-03-23T02:06:25.123Z,33.43
2018-03-23T02:09:00.173Z,32.37
2018-03-23T02:11:35.415Z,33.23
2018-03-23T02:14:10.015Z,31.53
2018-03-23T02:16:46.423Z,33.83
2018-03-23T02:19:21.615Z,33.63
2018-03-23T02:21:56.958Z,34.80
2018-03-23T02:24:32.027Z,33.23
2018-03-23T02:27:07.926Z,32.33
2018-03-23T02:29:43.822Z,34.27
2018-03-23T02:32:19.138Z,35.57
2018-03-23T02:34:54.304Z,35.57
2018-03-23T02:37:30.269Z,34.63
2018-03-23T02:40:05.358Z,34.33
2018-03-23T02:42:40.864Z,37.17
2018-03-23T02:45:11.205Z,37.73
2018-03-23T02:47:46.720Z,36.73
2018-03-23T02:50:22.147Z,35.23
2018-03-23T02:52:58.471Z,35.50
2018-03-23T02:55:34.317Z,36.03
2018-03-23T02:58:09.649Z,35.27
2018-03-23T03:00:41.327Z,38.30
2018-03-23T03:03:16.039Z,37.03
2018-03-23T03:05:50.908Z,35.23
2018-03-23T03:08:26.015Z,35.37
2018-03-23T03:11:00.864Z,34.93
2018-03-23T03:13:36.266Z,36.53
2018-03-23T03:16:07.203Z,38.20
2018-03-23T03:18:42.894Z,35.93
2018-03-23T03:21:18.406Z,35.50
2018-03-23T03:23:54.134Z,35.57
2018-03-23T03:26:29.276Z,35.10
2018-03-23T03:29:04.515Z,37.30
2018-03-23T03:31:39.974Z,35.17
2018-03-23T03:34:15.219Z,36.37
2018-03-23T03:36:50.023Z,35.03
2018-03-23T03:39:25.160Z,34.47
2018-03-23T03:41:59.925Z,34.37
2018-03-23T03:44:34.621Z,34.03
2018-03-23T03:47:09.574Z,34.13
2018-03-23T03:49:45.703Z,33.47
2018-03-23T03:52:20.741Z,33.20
2018-03-23T03:54:56.080Z,34.87
2018-03-23T03:57:31.143Z,34.47
2018-03-23T04:00:06.581Z,34.40
2018-03-23T04:02:41.655Z,35.33
2018-03-23T04:05:17.116Z,33.83
2018-03-23T04:07:52.123Z,34.37
2018-03-23T04:10:28.306Z,34.83
2018-03-23T04:13:03.384Z,37.23
2018-03-23T04:15:34.454Z,33.83
2018-03-23T04:18:09.835Z,33.17
2018-03-23T04:20:45.064Z,35.33
2018-03-23T04:23:20.095Z,35.33
2018-03-23T04:25:55.989Z,37.07
2018-03-23T04:28:31.021Z,35.97
2018-03-23T04:31:02.024Z,34.10
2018-03-23T04:33:37.006Z,35.47
2018-03-23T04:36:12.892Z,36.90
2018-03-23T04:38:47.611Z,35.67
2018-03-23T04:41:23.792Z,35.70
2018-03-23T04:43:58.665Z,35.17
2018-03-23T04:46:33.911Z,36.80
2018-03-23T04:49:09.081Z,35.17
2018-03-23T04:51:45.057Z,34.33
2018-03-23T04:54:21.034Z,36.20
2018-03-23T04:56:57.145Z,35.00
2018-03-23T04:59:33.878Z,43.07
2018-03-23T05:02:09.762Z,40.83
2018-03-23T05:04:45.901Z,39.13
2018-03-23T05:07:21.095Z,35.17
2018-03-23T05:09:56.968Z,36.60
2018-03-23T05:12:32.537Z,41.20
2018-03-23T05:15:07.383Z,39.90
2018-03-23T05:17:42.985Z,38.23
2018-03-23T05:20:17.889Z,38.67
2018-03-23T05:22:53.271Z,36.93
2018-03-23T05:25:28.102Z,39.07
2018-03-23T05:28:03.769Z,41.10
2018-03-23T05:30:34.945Z,43.43
2018-03-23T05:33:11.006Z,39.93
2018-03-23T05:35:46.848Z,38.20
2018-03-23T05:38:23.647Z,38.23
2018-03-23T05:40:59.786Z,37.53
2018-03-23T05:43:35.991Z,37.77
2018-03-23T05:46:06.939Z,38.13
2018-03-23T05:48:42.562Z,38.40
2018-03-23T05:51:17.725Z,38.83
2018-03-23T05:53:53.801Z,39.07
2018-03-23T05:56:29.351Z,38.67
2018-03-23T05:59:05.660Z,39.83
2018-03-23T06:01:41.317Z,38.70
2018-03-23T06:04:16.569Z,40.20
2018-03-23T06:06:51.601Z,36.67
2018-03-23T06:09:27.379Z,39.27
2018-03-23T06:12:02.445Z,37.37
2018-03-23T06:14:38.273Z,39.17
2018-03-23T06:17:12.925Z,41.23
2018-03-23T06:19:48.542Z,38.73
2018-03-23T06:22:23.407Z,41.00
2018-03-23T06:24:59.027Z,42.37
2018-03-23T06:27:34.364Z,43.97
2018-03-23T06:30:08.839Z,42.47
2018-03-23T06:32:43.346Z,42.00
2018-03-23T06:35:19.305Z,44.87
2018-03-23T06:37:54.608Z,49.97
2018-03-23T06:40:30.991Z,49.90
2018-03-23T06:43:06.209Z,56.83
2018-03-23T06:45:38.519Z,53.17
2018-03-23T06:48:14.094Z,55.67
2018-03-23T06:50:49.786Z,57.40
2018-03-23T06:53:24.959Z,56.07
2018-03-23T06:56:01.764Z,51.03
2018-03-23T06:58:36.599Z,56.70
2018-03-23T07:01:07.848Z,58.03
2018-03-23T07:03:43.015Z,57.07
2018-03-23T07:06:18.461Z,56.90
2018-03-23T07:08:53.846Z,66.43
2018-03-23T07:11:31.962Z,62.90
2018-03-23T07:14:07.318Z,65.00
2018-03-23T07:16:44.576Z,67.17
2018-03-23T07:19:19.838Z,68.37
2018-03-23T07:21:56.639Z,68.87
2018-03-23T07:24:32.481Z,74.90
2018-03-23T07:27:09.457Z,65.27
2018-03-23T07:29:44.383Z,63.67
2018-03-23T07:32:20.563Z,68.90
2018-03-23T07:34:56.321Z,66.53
2018-03-23T07:37:31.932Z,73.63
2018-03-23T07:40:06.956Z,64.00
2018-03-23T07:42:42.491Z,66.43
2018-03-23T07:45:13.304Z,67.87
2018-03-23T07:47:51.761Z,63.03
2018-03-23T07:50:26.749Z,59.03
2018-03-23T07:53:04.056Z,60.60
2018-03-23T07:55:38.991Z,52.03
2018-03-23T07:58:14.711Z,53.80
2018-03-23T08:00:51.158Z,53.53
2018-03-23T08:03:27.053Z,48.53
2018-03-23T08:06:02.425Z,46.37
2018-03-23T08:08:38.021Z,47.67
2018-03-23T08:11:13.919Z,46.83
2018-03-23T08:13:50.405Z,58.10
2018-03-23T08:16:21.613Z,59.77
2018-03-23T08:18:57.087Z,49.50
2018-03-23T08:21:31.740Z,49.60
2018-03-23T08:24:07.659Z,52.30
2018-03-23T08:26:42.722Z,44.17
2018-03-23T08:29:18.175Z,42.17
2018-03-23T08:31:54.296Z,38.83
2018-03-23T08:34:29.616Z,36.27
2018-03-23T08:37:05.100Z,38.73
2018-03-23T08:39:40.571Z,36.50
2018-03-23T08:42:15.683Z,39.13
2018-03-23T08:44:51.241Z,37.03
2018-03-23T08:47:26.539Z,39.10
2018-03-23T08:50:02.303Z,37.43
2018-03-23T08:52:37.575Z,35.70
2018-03-23T08:55:12.987Z,36.43
2018-03-23T08:57:47.941Z,33.17
2018-03-23T09:00:18.995Z,31.70
2018-03-23T09:02:53.919Z,34.10
2018-03-23T09:05:30.587Z,33.20
2018-03-23T09:08:05.989Z,29.47
2018-03-23T09:10:42.409Z,28.40
2018-03-23T09:13:17.392Z,29.87
2018-03-23T09:15:48.564Z,27.80
2018-03-23T09:18:23.612Z,23.77
2018-03-23T09:20:59.525Z,24.10
2018-03-23T09:23:34.695Z,23.17
2018-03-23T09:26:10.449Z,21.00
2018-03-23T09:28:46.684Z,21.10
2018-03-23T09:31:17.657Z,20.77
2018-03-23T09:33:53.231Z,21.27
2018-03-23T09:36:30.057Z,19.40
2018-03-23T09:39:05.459Z,18.93
2018-03-23T09:41:40.854Z,16.33
2018-03-23T09:44:18.455Z,15.87
2018-03-23T09:46:53.925Z,16.47
2018-03-23T09:49:29.725Z,15.00
2018-03-23T09:52:05.510Z,14.60
2018-03-23T09:54:41.271Z,15.27
2018-03-23T09:57:16.987Z,13.90
2018-03-23T09:59:52.575Z,16.50
2018-03-23T10:02:28.311Z,17.47
2018-03-23T10:05:03.564Z,17.43
2018-03-23T10:07:40.330Z,16.00
2018-03-23T10:10:15.513Z,16.30
2018-03-23T10:12:51.437Z,18.30
2018-03-23T10:15:21.857Z,17.83
2018-03-23T10:17:58.509Z,20.53
2018-03-23T10:20:34.041Z,21.00
2018-03-23T10:23:09.035Z,21.60
2018-03-23T10:25:44.107Z,24.43
2018-03-23T10:28:19.827Z,24.73
2018-03-23T10:30:50.974Z,24.20
2018-03-23T10:33:26.557Z,27.80
2018-03-23T10:36:03.159Z,27.03
2018-03-23T10:38:38.643Z,25.27
2018-03-23T10:41:13.569Z,26.10
2018-03-23T10:43:48.960Z,25.90
2018-03-23T10:46:24.235Z,20.63
2018-03-23T10:48:59.986Z,19.57
2018-03-23T10:51:37.233Z,19.50
2018-03-23T10:54:12.665Z,19.90
2018-03-23T10:56:47.881Z,18.07
2018-03-23T10:59:23.247Z,18.87
2018-03-23T11:02:02.209Z,19.53
2018-03-23T11:04:38.148Z,19.50
2018-03-23T11:07:13.685Z,18.10
2018-03-23T11:09:49.133Z,19.60
2018-03-23T11:12:25.496Z,20.93
2018-03-23T11:15:02.490Z,21.30
2018-03-23T11:17:37.327Z,20.73
2018-03-23T11:20:13.776Z,21.30
2018-03-23T11:22:49.097Z,21.57
2018-03-23T11:25:24.752Z,23.50
2018-03-23T11:27:59.604Z,22.00
2018-03-23T11:30:30.633Z,22.87
2018-03-23T11:33:05.989Z,19.30
2018-03-23T11:35:41.396Z,18.97
2018-03-23T11:38:16.496Z,17.63
2018-03-23T11:40:51.315Z,17.67
2018-03-23T11:43:28.477Z,18.60
2018-03-23T11:46:00.545Z,18.77
2018-03-23T11:48:35.711Z,17.97
2018-03-23T11:51:10.931Z,17.50
2018-03-23T11:53:46.023Z,17.73
2018-03-23T11:56:21.499Z,17.27
2018-03-23T11:58:57.131Z,15.93
2018-03-23T12:01:33.433Z,16.10
2018-03-23T12:04:08.947Z,13.93
2018-03-23T12:06:45.267Z,10.97
2018-03-23T12:09:20.395Z,12.00
2018-03-23T12:11:55.842Z,11.47
2018-03-23T12:14:32.595Z,12.20
2018-03-23T12:17:08.359Z,12.63
2018-03-23T12:19:44.254Z,14.20
2018-03-23T12:22:19.817Z,14.33
2018-03-23T12:24:57.654Z,14.93
2018-03-23T12:27:33.336Z,13.87
2018-03-23T12:30:08.707Z,13.87
2018-03-23T12:32:44.018Z,14.23
2018-03-23T12:35:19.506Z,14.23
2018-03-23T12:37:57.330Z,13.63
2018-03-23T12:40:32.790Z,14.10
2018-03-23T12:43:08.256Z,13.13
2018-03-23T12:45:39.425Z,14.23
2018-03-23T12:48:14.940Z,13.17
2018-03-23T12:50:50.049Z,14.00
2018-03-23T12:53:25.572Z,14.53
2018-03-23T12:56:00.390Z,14.73
2018-03-23T12:58:36.727Z,13.13
2018-03-23T13:01:07.699Z,11.80
2018-03-23T13:03:42.792Z,11.30
2018-03-23T13:06:18.284Z,11.80
2018-03-23T13:08:53.536Z,11.47
2018-03-23T13:11:28.588Z,11.87
2018-03-23T13:14:04.463Z,12.07
2018-03-23T13:16:39.464Z,13.00
2018-03-23T13:19:15.077Z,13.23
2018-03-23T13:21:51.428Z,13.53
2018-03-23T13:24:27.313Z,12.87
2018-03-23T13:27:03.986Z,14.00
2018-03-23T13:29:39.861Z,13.53
2018-03-23T13:32:15.397Z,13.37
2018-03-23T13:34:50.916Z,13.57
2018-03-23T13:37:26.572Z,12.83
2018-03-23T13:40:02.676Z,12.07
2018-03-23T13:42:37.767Z,11.93
2018-03-23T13:45:12.291Z,11.73
2018-03-23T13:47:47.100Z,13.23
2018-03-23T13:50:22.496Z,13.23
2018-03-23T13:52:59.540Z,13.40
2018-03-23T13:55:35.964Z,12.27
2018-03-23T13:58:13.121Z,12.93
2018-03-23T14:00:49.823Z,17.57
2018-03-23T14:03:22.385Z,11.77
2018-03-23T14:05:59.417Z,11.03
2018-03-23T14:08:37.060Z,11.67
2018-03-23T14:11:12.628Z,10.80
2018-03-23T14:13:49.977Z,10.13
2018-03-23T14:16:21.070Z,11.13
2018-03-23T14:18:57.316Z,10.53
2018-03-23T14:21:34.615Z,10.40
2018-03-23T14:24:09.633Z,9.27
2018-03-23T14:26:45.699Z,10.07
2018-03-23T14:29:20.843Z,10.27
2018-03-23T14:31:57.022Z,10.47
2018-03-23T14:34:32.136Z,11.53
2018-03-23T14:37:07.382Z,11.17
2018-03-23T14:39:42.281Z,10.10
2018-03-23T14:42:18.620Z,10.63
2018-03-23T14:44:53.318Z,11.00
2018-03-23T14:47:29.574Z,11.13
2018-03-23T14:50:04.644Z,10.83
2018-03-23T14:52:40.218Z,11.37
2018-03-23T14:55:16.594Z,11.00
2018-03-23T14:57:52.422Z,12.30
2018-03-23T15:00:22.814Z,11.53
2018-03-23T15:02:59.814Z,10.70
2018-03-23T15:05:35.823Z,11.00
2018-03-23T15:08:11.089Z,11.37
2018-03-23T15:10:46.997Z,11.43
2018-03-23T15:13:22.855Z,11.03
2018-03-23T15:15:53.759Z,11.67
2018-03-23T15:18:29.035Z,12.53
2018-03-23T15:21:03.886Z,11.60
2018-03-23T15:23:41.367Z,12.87
2018-03-23T15:26:16.129Z,13.33
2018-03-23T15:28:52.397Z,12.80
2018-03-23T15:31:24.057Z,12.70
2018-03-23T15:34:00.074Z,12.33
2018-03-23T15:36:35.309Z,12.13
2018-03-23T15:39:11.389Z,12.87
2018-03-23T15:41:47.641Z,12.43
2018-03-23T15:44:22.823Z,12.77
2018-03-23T15:46:57.450Z,12.40
2018-03-23T15:49:34.679Z,12.57
2018-03-23T15:52:07.337Z,13.03
2018-03-23T15:54:43.129Z,12.43
2018-03-23T15:57:18.389Z,13.53
2018-03-23T15:59:53.596Z,12.80
2018-03-23T16:02:28.814Z,12.63
2018-03-23T16:05:03.209Z,12.47
2018-03-23T16:07:37.957Z,12.60
2018-03-23T16:10:13.861Z,12.57
2018-03-23T16:12:49.651Z,12.57
2018-03-23T16:15:20.202Z,13.17
2018-03-23T16:17:55.323Z,14.03
2018-03-23T16:20:31.315Z,12.47
2018-03-23T16:23:07.463Z,14.27
2018-03-23T16:25:42.917Z,14.13
2018-03-23T16:28:17.935Z,14.23
2018-03-23T16:30:49.804Z,14.03
2018-03-23T16:33:28.115Z,13.77
2018-03-23T16:36:04.020Z,12.60
2018-03-23T16:38:40.108Z,11.97
2018-03-23T16:41:16.493Z,13.60
2018-03-23T16:43:52.306Z,13.87
2018-03-23T16:46:23.411Z,14.53
2018-03-23T16:48:59.531Z,14.23
2018-03-23T16:51:35.037Z,14.90
2018-03-23T16:54:10.247Z,14.33
2018-03-23T16:56:45.223Z,14.20
2018-03-23T16:59:30.980Z,13.97
2018-03-23T17:02:07.143Z,14.70
2018-03-23T17:04:42.586Z,15.07
2018-03-23T17:07:18.725Z,14.03
2018-03-23T17:09:54.586Z,14.87
2018-03-23T17:12:37.488Z,15.23
2018-03-23T17:15:14.027Z,15.33
2018-03-23T17:17:49.768Z,19.37
2018-03-23T17:20:25.206Z,18.10
2018-03-23T17:23:01.340Z,16.43
2018-03-23T17:25:36.872Z,14.33
2018-03-23T17:28:11.824Z,15.33
2018-03-23T17:30:47.765Z,14.90
2018-03-23T17:33:24.014Z,14.03
2018-03-23T17:35:58.985Z,15.07
2018-03-23T17:38:34.591Z,13.87
2018-03-23T17:41:09.672Z,15.33
2018-03-23T17:43:45.343Z,15.27
2018-03-23T17:46:16.409Z,14.00
2018-03-23T17:48:51.827Z,14.07
2018-03-23T17:51:28.206Z,14.87
2018-03-23T17:54:05.281Z,15.47
2018-03-23T17:56:40.325Z,14.80
2018-03-23T17:59:15.861Z,14.63
2018-03-23T18:01:50.780Z,15.07
2018-03-23T18:04:26.493Z,14.17
2018-03-23T18:07:02.453Z,15.53
2018-03-23T18:09:38.357Z,18.63
2018-03-23T18:12:14.880Z,17.50
2018-03-23T18:14:50.649Z,16.73
2018-03-23T18:17:25.510Z,17.33
2018-03-23T18:20:00.812Z,16.00
2018-03-23T18:22:39.199Z,17.30
2018-03-23T18:25:14.551Z,17.20
2018-03-23T18:27:51.029Z,15.33
2018-03-23T18:30:23.981Z,15.87
2018-03-23T18:32:59.064Z,16.80
2018-03-23T18:35:33.923Z,20.87
2018-03-23T18:38:09.046Z,21.50
2018-03-23T18:40:44.626Z,17.90
2018-03-23T18:43:20.179Z,15.63
2018-03-23T18:45:51.206Z,16.97
2018-03-23T18:48:26.421Z,15.73
2018-03-23T18:51:01.616Z,16.27
2018-03-23T18:53:37.522Z,16.53
2018-03-23T18:56:12.992Z,17.87
2018-03-23T18:58:48.102Z,18.70
2018-03-23T19:01:19.413Z,18.97
2018-03-23T19:03:53.806Z,18.03
2018-03-23T19:06:29.163Z,17.33
2018-03-23T19:09:05.709Z,18.57
2018-03-23T19:11:41.243Z,20.70
2018-03-23T19:14:16.925Z,20.57
2018-03-23T19:16:52.939Z,17.70
2018-03-23T19:19:27.928Z,20.17
2018-03-23T19:22:03.220Z,19.90
2018-03-23T19:24:38.194Z,22.37
2018-03-23T19:27:12.265Z,20.97
2018-03-23T19:29:47.321Z,18.00
2018-03-23T19:32:23.131Z,18.63
2018-03-23T19:34:59.314Z,19.33
2018-03-23T19:37:34.807Z,21.77
2018-03-23T19:40:09.791Z,21.87
2018-03-23T19:42:45.311Z,18.90
2018-03-23T19:45:16.464Z,19.77
2018-03-23T19:47:51.904Z,20.80
2018-03-23T19:50:26.767Z,18.97
2018-03-23T19:53:01.623Z,17.37
2018-03-23T19:55:36.639Z,18.37
2018-03-23T19:58:12.083Z,19.37
2018-03-23T20:00:43.875Z,20.07
2018-03-23T20:03:17.143Z,19.97
2018-03-23T20:05:52.925Z,21.23
2018-03-23T20:08:28.329Z,20.27
2018-03-23T20:11:04.216Z,44.80
2018-03-23T20:13:39.705Z,67.37
2018-03-23T20:16:11.289Z,45.87
2018-03-23T20:18:48.424Z,36.40
2018-03-23T20:21:23.544Z,29.30
2018-03-23T20:27:18.569Z,19.83
2018-03-23T20:29:53.959Z,20.60
2018-03-23T20:32:34.015Z,22.53
2018-03-23T20:35:09.415Z,22.43
2018-03-23T20:37:44.208Z,21.20
2018-03-23T20:40:19.298Z,23.00
2018-03-23T20:42:54.138Z,22.67
2018-03-23T20:45:25.326Z,20.43
2018-03-23T20:48:01.084Z,23.20
2018-03-23T20:50:36.469Z,24.30
2018-03-23T20:53:11.491Z,24.07
2018-03-23T20:55:46.927Z,24.30
2018-03-23T20:58:21.679Z,22.87
2018-03-23T21:00:53.233Z,23.17
2018-03-23T21:03:28.033Z,23.17
2018-03-23T21:06:03.807Z,23.03
2018-03-23T21:08:39.173Z,23.63
2018-03-23T21:11:15.546Z,22.47
2018-03-23T21:13:51.461Z,22.43
2018-03-23T21:16:22.491Z,21.80
2018-03-23T21:18:58.025Z,24.70
2018-03-23T21:21:33.327Z,25.23
2018-03-23T21:24:09.076Z,23.63
2018-03-23T21:26:45.621Z,24.17
2018-03-23T21:29:20.515Z,24.47
2018-03-23T21:31:55.779Z,26.13
2018-03-23T21:34:30.769Z,23.00
2018-03-23T21:37:07.029Z,23.13
2018-03-23T21:39:41.841Z,22.80
2018-03-23T21:42:17.626Z,24.10
2018-03-23T21:44:52.517Z,24.73
2018-03-23T21:47:28.387Z,23.97
2018-03-23T21:50:03.395Z,23.90
2018-03-23T21:52:38.507Z,22.20
2018-03-23T21:55:13.638Z,22.47
2018-03-23T21:57:48.757Z,22.80
2018-03-23T22:00:19.146Z,23.17
2018-03-23T22:02:55.190Z,25.60
2018-03-23T22:05:31.213Z,27.20
2018-03-23T22:08:06.875Z,26.47
2018-03-23T22:10:41.735Z,28.07
2018-03-23T22:13:17.729Z,28.70
2018-03-23T22:15:48.699Z,25.33
2018-03-23T22:18:24.752Z,25.43
2018-03-23T22:20:59.456Z,26.23
2018-03-23T22:23:34.634Z,25.73
2018-03-23T22:26:09.770Z,25.03
2018-03-23T22:28:45.899Z,28.40
2018-03-23T22:31:16.888Z,26.60
2018-03-23T22:33:52.415Z,25.70
2018-03-23T22:36:27.463Z,26.67
2018-03-23T22:39:02.945Z,24.47
2018-03-23T22:41:37.831Z,27.50
2018-03-23T22:44:12.903Z,29.40
2018-03-23T22:46:47.997Z,27.17
2018-03-23T22:49:23.803Z,26.80
2018-03-23T22:51:59.559Z,27.27
2018-03-23T22:54:34.752Z,26.13
2018-03-23T22:57:09.744Z,25.33
2018-03-23T22:59:44.955Z,25.97
2018-03-23T23:02:19.765Z,26.60
2018-03-23T23:04:55.585Z,27.53
2018-03-23T23:07:30.428Z,28.73
2018-03-23T23:10:05.925Z,26.70
2018-03-23T23:12:40.584Z,26.40
2018-03-23T23:15:10.939Z,26.03
2018-03-23T23:17:46.279Z,26.33
2018-03-23T23:20:22.455Z,27.60
2018-03-23T23:22:58.239Z,27.37
2018-03-23T23:25:33.517Z,26.93
2018-03-23T23:28:09.103Z,27.80
2018-03-23T23:30:40.082Z,27.00
2018-03-23T23:33:15.675Z,25.93
2018-03-23T23:35:52.156Z,25.57
2018-03-23T23:38:27.143Z,24.63
2018-03-23T23:41:02.084Z,26.33
2018-03-23T23:43:36.767Z,26.63
2018-03-23T23:46:07.840Z,27.33
2018-03-23T23:48:42.891Z,25.70
2018-03-23T23:51:18.181Z,24.50
2018-03-23T23:53:53.043Z,26.60
2018-03-23T23:56:28.175Z,26.13
2018-03-23T23:59:03.292Z,27.40
